Time;durP1;ratioP1;P1;durP2;ratioP2;P2;SDS_P1;SDS_P2;PMS_P1;PMS_P2;Temp;Humidity;BMP_temperature;BMP_pressure;BME280_temperature;BME280_humidity;BME280_pressure;Samples;Min_cycle;Max_cycle;Signal;HPM_P1;HPM_P2
2022/08/20 00:00:37;;;;;;;3.08;1.80;;;;;;;;;;5033127;28;20241;-15
2022/08/20 00:03:06;;;;;;;2.38;1.75;;;;;;;;;;5045897;28;20234;-15
2022/08/20 00:05:34;;;;;;;4.85;2.22;;;;;;;;;;5053349;28;20230;-16
2022/08/20 00:08:02;;;;;;;2.78;1.75;;;;;;;;;;5041249;28;20238;-16
2022/08/20 00:10:31;;;;;;;2.95;2.05;;;;;;;;;;5052970;28;20286;-15
2022/08/20 00:12:59;;;;;;;3.20;2.00;;;;;;;;;;5044964;28;20242;-15
2022/08/20 00:15:28;;;;;;;3.95;2.05;;;;;;;;;;5047676;28;20242;-15
2022/08/20 00:17:55;;;;;;;2.75;1.90;;;;;;;;;;5043180;28;20237;-16
2022/08/20 00:20:23;;;;;;;2.95;1.90;;;;;;;;;;5052605;28;20274;-15
2022/08/20 00:22:51;;;;;;;2.10;1.85;;;;;;;;;;5052107;28;20254;-16
2022/08/20 00:25:18;;;;;;;2.60;1.80;;;;;;;;;;5049135;28;20226;-16
2022/08/20 00:27:47;;;;;;;3.53;2.10;;;;;;;;;;5051735;28;20234;-16
2022/08/20 00:30:14;;;;;;;2.72;1.90;;;;;;;;;;5051358;28;20238;-15
2022/08/20 00:32:43;;;;;;;4.03;2.17;;;;;;;;;;5052303;28;20237;-15
2022/08/20 00:35:10;;;;;;;3.40;2.20;;;;;;;;;;5043468;28;20242;-16
2022/08/20 00:37:39;;;;;;;3.15;1.83;;;;;;;;;;5050675;28;20238;-16
2022/08/20 00:40:07;;;;;;;2.10;1.70;;;;;;;;;;5052515;28;20238;-16
2022/08/20 00:42:51;;;;;;;3.40;1.60;;;;;;;;;;5047620;28;20238;-16
2022/08/20 00:45:18;;;;;;;2.85;1.98;;;;;;;;;;5031700;28;20234;-16
2022/08/20 00:47:46;;;;;;;3.38;1.60;;;;;;;;;;5048038;28;20237;-16
2022/08/20 00:50:31;;;;;;;1.92;1.70;;;;;;;;;;5052341;28;20234;-16
2022/08/20 00:52:59;;;;;;;2.90;1.80;;;;;;;;;;5051637;28;20238;-16
2022/08/20 00:55:26;;;;;;;2.30;1.80;;;;;;;;;;5052123;28;20234;-15
2022/08/20 00:58:00;;;;;;;2.30;1.92;;;;;;;;;;5036945;28;20254;-16
2022/08/20 01:00:29;;;;;;;3.13;2.10;;;;;;;;;;5039044;28;20238;-15
2022/08/20 01:02:58;;;;;;;2.47;1.83;;;;;;;;;;5047832;28;20241;-16
2022/08/20 01:05:25;;;;;;;4.45;1.80;;;;;;;;;;5051965;28;20716;-16
2022/08/20 01:07:56;;;;;;;2.90;1.92;;;;;;;;;;5041663;28;20289;-15
2022/08/20 01:10:26;;;;;;;2.72;1.65;;;;;;;;;;5052323;28;20238;-16
2022/08/20 01:12:54;;;;;;;2.90;2.25;;;;;;;;;;5052034;28;20230;-16
2022/08/20 01:15:28;;;;;;;2.80;2.00;;;;;;;;;;5048601;28;20241;-15
2022/08/20 01:17:57;;;;;;;4.35;1.83;;;;;;;;;;5045036;28;20816;-15
2022/08/20 01:20:25;;;;;;;2.15;1.75;;;;;;;;;;5037705;28;20240;-16
2022/08/20 01:25:44;;;;;;;2.75;1.77;;;;;;;;;;5024441;28;20226;-16
2022/08/20 01:28:11;;;;;;;3.05;1.90;;;;;;;;;;5038563;28;20235;-16
2022/08/20 01:30:38;;;;;;;5.18;2.00;;;;;;;;;;5044439;28;20234;-15
2022/08/20 01:33:06;;;;;;;2.45;2.10;;;;;;;;;;5045303;28;20222;-15
2022/08/20 01:35:34;;;;;;;3.03;2.08;;;;;;;;;;5036762;28;20239;-15
2022/08/20 01:38:02;;;;;;;3.15;2.28;;;;;;;;;;5040996;28;20260;-16
2022/08/20 01:40:36;;;;;;;3.45;2.05;;;;;;;;;;5035894;28;20239;-16
2022/08/20 01:43:08;;;;;;;2.88;2.30;;;;;;;;;;5040816;28;20230;-16
2022/08/20 01:45:38;;;;;;;5.47;2.40;;;;;;;;;;5049423;28;20227;-16
2022/08/20 01:48:06;;;;;;;4.13;1.92;;;;;;;;;;5050082;28;20234;-16
2022/08/20 01:50:35;;;;;;;2.55;2.05;;;;;;;;;;5051539;28;20230;-16
2022/08/20 01:53:04;;;;;;;4.18;2.22;;;;;;;;;;5042578;28;20235;-16
2022/08/20 01:55:31;;;;;;;4.93;2.53;;;;;;;;;;5039260;28;20234;-16
2022/08/20 01:57:59;;;;;;;2.92;2.67;;;;;;;;;;5051339;28;20218;-16
2022/08/20 02:00:27;;;;;;;4.82;2.72;;;;;;;;;;5048789;28;20242;-16
2022/08/20 02:02:55;;;;;;;5.38;2.53;;;;;;;;;;5050377;28;20292;-16
2022/08/20 02:05:22;;;;;;;4.93;2.90;;;;;;;;;;5042685;28;20332;-16
2022/08/20 02:07:56;;;;;;;2.58;2.25;;;;;;;;;;5037097;28;20240;-16
2022/08/20 02:10:23;;;;;;;3.67;2.05;;;;;;;;;;5051116;28;21037;-16
2022/08/20 02:12:51;;;;;;;3.25;2.22;;;;;;;;;;5051156;28;20685;-15
2022/08/20 02:15:19;;;;;;;3.38;2.03;;;;;;;;;;5031401;28;20235;-15
2022/08/20 02:18:05;;;;;;;3.80;1.77;;;;;;;;;;5044721;28;20234;-16
2022/08/20 02:23:07;;;;;;;4.15;1.83;;;;;;;;;;5024949;28;21012;-13
2022/08/20 02:25:35;;;;;;;3.78;2.08;;;;;;;;;;5032486;28;20226;-13
2022/08/20 02:28:04;;;;;;;4.68;2.08;;;;;;;;;;5030233;28;20245;-13
2022/08/20 02:30:33;;;;;;;3.22;1.83;;;;;;;;;;5030644;28;20231;-13
2022/08/20 02:33:00;;;;;;;5.45;2.00;;;;;;;;;;5031332;28;20238;-13
2022/08/20 02:35:31;;;;;;;2.75;2.08;;;;;;;;;;5030704;28;20227;-13
2022/08/20 02:38:00;;;;;;;4.47;2.20;;;;;;;;;;5030492;28;20310;-13
2022/08/20 02:40:27;;;;;;;5.22;2.85;;;;;;;;;;5024772;28;20238;-13
2022/08/20 02:42:57;;;;;;;3.17;2.00;;;;;;;;;;5029964;28;20227;-13
2022/08/20 02:45:24;;;;;;;6.07;2.22;;;;;;;;;;5016620;28;20227;-13
2022/08/20 02:47:54;;;;;;;3.90;1.83;;;;;;;;;;5029916;28;20231;-13
2022/08/20 02:50:22;;;;;;;4.40;1.92;;;;;;;;;;5030547;28;20822;-13
2022/08/20 02:52:51;;;;;;;3.05;2.00;;;;;;;;;;5030576;28;20310;-13
2022/08/20 02:55:19;;;;;;;5.25;2.00;;;;;;;;;;5029893;28;20246;-13
2022/08/20 02:57:54;;;;;;;4.80;2.00;;;;;;;;;;5021364;28;20289;-13
2022/08/20 03:00:25;;;;;;;3.33;2.22;;;;;;;;;;5030243;28;20231;-13
2022/08/20 03:02:52;;;;;;;3.63;1.95;;;;;;;;;;5030269;28;20231;-13
2022/08/20 03:05:20;;;;;;;3.45;1.83;;;;;;;;;;5030287;28;20227;-13
2022/08/20 03:07:48;;;;;;;2.97;1.85;;;;;;;;;;5029724;28;20238;-13
2022/08/20 03:10:16;;;;;;;4.53;2.42;;;;;;;;;;5029984;28;20227;-13
2022/08/20 03:12:44;;;;;;;3.45;2.00;;;;;;;;;;5030213;28;20322;-13
2022/08/20 03:15:14;;;;;;;2.45;1.80;;;;;;;;;;5029938;28;21291;-13
2022/08/20 03:17:44;;;;;;;2.22;1.98;;;;;;;;;;5033620;28;20242;-13
2022/08/20 03:20:11;;;;;;;2.85;2.22;;;;;;;;;;5033291;28;20218;-13
2022/08/20 03:22:39;;;;;;;4.30;1.90;;;;;;;;;;5031803;28;20246;-13
2022/08/20 03:25:06;;;;;;;4.13;2.40;;;;;;;;;;5033871;28;20231;-13
2022/08/20 03:27:35;;;;;;;5.30;2.10;;;;;;;;;;5033627;28;20230;-12
2022/08/20 03:30:03;;;;;;;4.38;2.38;;;;;;;;;;5033711;28;20289;-13
2022/08/20 03:32:30;;;;;;;2.80;1.90;;;;;;;;;;5032724;28;20233;-13
2022/08/20 03:34:58;;;;;;;3.25;1.80;;;;;;;;;;5032421;28;20273;-13
2022/08/20 03:37:25;;;;;;;2.75;2.10;;;;;;;;;;5033638;28;20245;-13
2022/08/20 03:39:52;;;;;;;2.30;2.10;;;;;;;;;;5033392;28;20226;-13
2022/08/20 03:42:20;;;;;;;2.83;1.98;;;;;;;;;;5032813;28;20235;-12
2022/08/20 03:44:49;;;;;;;2.65;1.98;;;;;;;;;;5033566;28;20726;-12
2022/08/20 03:47:25;;;;;;;3.88;1.95;;;;;;;;;;5033698;28;20301;-12
2022/08/20 03:49:57;;;;;;;5.93;2.20;;;;;;;;;;5033141;28;20230;-12
2022/08/20 03:52:24;;;;;;;3.30;2.05;;;;;;;;;;5032714;28;20227;-12
2022/08/20 03:54:52;;;;;;;3.05;1.95;;;;;;;;;;5025452;28;20243;-13
2022/08/20 03:57:19;;;;;;;4.47;2.30;;;;;;;;;;5032568;28;20246;-12
2022/08/20 03:59:47;;;;;;;4.50;2.35;;;;;;;;;;5032942;28;20676;-12
2022/08/20 04:02:26;;;;;;;6.93;2.15;;;;;;;;;;5033247;28;20238;-12
2022/08/20 04:04:54;;;;;;;1.88;1.60;;;;;;;;;;5032555;28;20230;-12
2022/08/20 04:07:26;;;;;;;3.17;1.83;;;;;;;;;;5033220;28;20794;-13
2022/08/20 04:09:53;;;;;;;3.05;1.70;;;;;;;;;;5032919;28;20379;-12
2022/08/20 04:12:20;;;;;;;2.83;2.03;;;;;;;;;;5033038;28;20978;-12
2022/08/20 04:14:48;;;;;;;2.90;2.00;;;;;;;;;;5028529;28;21035;-13
2022/08/20 04:17:16;;;;;;;6.70;2.13;;;;;;;;;;5032616;28;20238;-12
2022/08/20 04:19:46;;;;;;;3.20;2.20;;;;;;;;;;5032623;28;20233;-12
2022/08/20 04:22:14;;;;;;;3.38;2.17;;;;;;;;;;5031778;28;20634;-12
2022/08/20 04:24:41;;;;;;;2.85;1.70;;;;;;;;;;5032244;28;20230;-12
2022/08/20 04:27:09;;;;;;;2.75;2.17;;;;;;;;;;5032756;28;20233;-12
2022/08/20 04:29:36;;;;;;;3.15;1.90;;;;;;;;;;5033151;28;20231;-12
2022/08/20 04:32:04;;;;;;;4.65;2.03;;;;;;;;;;5032622;28;20238;-12
2022/08/20 04:34:32;;;;;;;9.30;2.67;;;;;;;;;;5031560;28;20329;-12
2022/08/20 04:37:01;;;;;;;3.05;2.05;;;;;;;;;;5025839;28;20249;-12
2022/08/20 04:39:28;;;;;;;3.53;2.30;;;;;;;;;;5028288;28;20233;-12
2022/08/20 04:41:55;;;;;;;4.25;2.35;;;;;;;;;;5032396;28;20241;-12
2022/08/20 04:44:22;;;;;;;5.43;1.90;;;;;;;;;;5032603;28;20282;-13
2022/08/20 04:46:50;;;;;;;6.15;2.10;;;;;;;;;;5030868;28;20259;-13
2022/08/20 04:49:18;;;;;;;3.08;2.00;;;;;;;;;;5032590;28;20245;-12
2022/08/20 04:51:45;;;;;;;2.70;2.00;;;;;;;;;;5031910;28;20279;-12
2022/08/20 04:54:14;;;;;;;3.60;1.95;;;;;;;;;;5028849;28;20246;-12
2022/08/20 04:56:41;;;;;;;2.97;2.05;;;;;;;;;;5024645;28;20231;-12
2022/08/20 04:59:09;;;;;;;3.00;1.90;;;;;;;;;;5028649;28;20234;-12
2022/08/20 05:01:36;;;;;;;3.70;2.05;;;;;;;;;;5032268;28;20237;-13
2022/08/20 05:04:04;;;;;;;2.30;2.10;;;;;;;;;;5031848;28;20329;-12
2022/08/20 05:06:31;;;;;;;3.22;2.70;;;;;;;;;;5031940;28;20227;-13
2022/08/20 05:08:59;;;;;;;2.53;1.88;;;;;;;;;;5031666;28;20266;-12
2022/08/20 05:11:28;;;;;;;2.38;2.17;;;;;;;;;;5031621;28;21045;-12
2022/08/20 05:14:02;;;;;;;3.08;1.90;;;;;;;;;;5027846;28;20691;-12
2022/08/20 05:16:36;;;;;;;2.92;2.00;;;;;;;;;;5031995;28;20235;-12
2022/08/20 05:19:04;;;;;;;4.68;2.28;;;;;;;;;;5031724;28;20338;-12
2022/08/20 05:21:31;;;;;;;2.83;2.25;;;;;;;;;;5027996;28;20249;-13
2022/08/20 05:23:59;;;;;;;5.35;2.22;;;;;;;;;;5032037;28;20239;-12
2022/08/20 05:26:28;;;;;;;3.10;2.63;;;;;;;;;;5030889;28;20237;-12
2022/08/20 05:28:55;;;;;;;4.43;2.25;;;;;;;;;;5031823;28;20326;-12
2022/08/20 05:31:25;;;;;;;3.00;2.38;;;;;;;;;;5031403;28;20231;-12
2022/08/20 05:33:59;;;;;;;3.38;2.60;;;;;;;;;;5028585;28;20342;-12
2022/08/20 05:36:26;;;;;;;2.42;1.88;;;;;;;;;;5028582;28;20228;-12
2022/08/20 05:38:54;;;;;;;3.90;2.40;;;;;;;;;;5028551;28;20241;-15
2022/08/20 05:41:21;;;;;;;4.28;2.55;;;;;;;;;;5028393;28;20239;-12
2022/08/20 05:43:59;;;;;;;3.85;2.42;;;;;;;;;;5029047;28;20738;-12
2022/08/20 05:46:26;;;;;;;2.72;2.15;;;;;;;;;;5028837;28;20816;-12
2022/08/20 05:48:54;;;;;;;4.47;2.50;;;;;;;;;;5029797;28;20240;-12
2022/08/20 05:51:26;;;;;;;5.32;2.45;;;;;;;;;;5031120;28;20237;-12
2022/08/20 05:53:53;;;;;;;4.03;2.78;;;;;;;;;;5031099;28;20231;-13
2022/08/20 05:56:23;;;;;;;4.03;2.60;;;;;;;;;;5031375;28;20242;-12
2022/08/20 05:58:53;;;;;;;6.55;2.83;;;;;;;;;;5031239;28;20698;-12
2022/08/20 06:01:22;;;;;;;4.32;2.47;;;;;;;;;;5030534;28;20239;-12
2022/08/20 06:06:34;;;;;;;2.63;2.15;;;;;;;;;;5031091;28;20237;-12
2022/08/20 06:09:13;;;;;;;4.50;2.47;;;;;;;;;;5031304;28;20278;-12
2022/08/20 06:11:40;;;;;;;4.55;2.40;;;;;;;;;;5030619;28;20222;-12
2022/08/20 06:14:07;;;;;;;3.58;2.10;;;;;;;;;;5030355;28;20238;-12
2022/08/20 06:16:36;;;;;;;8.35;2.92;;;;;;;;;;5026055;28;20245;-12
2022/08/20 06:19:04;;;;;;;4.32;2.55;;;;;;;;;;5026376;28;20248;-12
2022/08/20 06:21:31;;;;;;;5.00;2.33;;;;;;;;;;5026356;28;20243;-12
2022/08/20 06:23:59;;;;;;;4.80;2.28;;;;;;;;;;5030494;28;20231;-12
2022/08/20 06:26:28;;;;;;;4.88;2.63;;;;;;;;;;5029338;28;20706;-12
2022/08/20 06:28:57;;;;;;;5.63;2.55;;;;;;;;;;5030559;28;20281;-12
2022/08/20 06:31:26;;;;;;;5.10;2.60;;;;;;;;;;5030337;28;20231;-12
2022/08/20 06:33:55;;;;;;;7.78;3.33;;;;;;;;;;5026863;28;20834;-12
2022/08/20 06:36:23;;;;;;;8.02;3.30;;;;;;;;;;5029344;28;20259;-12
2022/08/20 06:38:53;;;;;;;4.93;3.20;;;;;;;;;;5027705;28;20247;-12
2022/08/20 06:41:21;;;;;;;6.03;2.97;;;;;;;;;;5030064;28;21060;-12
2022/08/20 06:43:54;;;;;;;5.13;2.80;;;;;;;;;;5030149;28;20309;-12
2022/08/20 06:46:22;;;;;;;4.55;2.95;;;;;;;;;;5028540;28;20226;-12
2022/08/20 06:48:50;;;;;;;6.05;2.40;;;;;;;;;;5029876;28;20235;-12
2022/08/20 06:51:20;;;;;;;3.88;2.63;;;;;;;;;;5028283;28;20248;-12
2022/08/20 06:53:48;;;;;;;4.60;2.60;;;;;;;;;;5025736;28;20222;-12
2022/08/20 06:56:15;;;;;;;9.05;3.03;;;;;;;;;;5027238;28;20234;-12
2022/08/20 06:58:43;;;;;;;3.55;2.38;;;;;;;;;;5024447;28;20245;-12
2022/08/20 07:01:11;;;;;;;9.13;2.60;;;;;;;;;;5027617;28;20226;-12
2022/08/20 07:03:39;;;;;;;4.68;2.38;;;;;;;;;;5030381;28;20267;-12
2022/08/20 07:06:21;;;;;;;6.22;2.55;;;;;;;;;;5030265;28;20227;-12
2022/08/20 07:08:49;;;;;;;5.60;2.45;;;;;;;;;;5030047;28;20237;-12
2022/08/20 07:11:16;;;;;;;8.95;2.40;;;;;;;;;;5030419;28;20698;-13
2022/08/20 07:13:44;;;;;;;5.35;2.40;;;;;;;;;;5030239;28;20317;-13
2022/08/20 07:16:11;;;;;;;6.07;2.63;;;;;;;;;;5029476;28;20321;-12
2022/08/20 07:18:39;;;;;;;4.72;2.28;;;;;;;;;;5029692;28;20245;-12
2022/08/20 07:21:06;;;;;;;5.07;2.55;;;;;;;;;;5028295;28;20265;-12
2022/08/20 07:23:35;;;;;;;10.68;3.35;;;;;;;;;;5022502;28;20349;-12
2022/08/20 07:26:02;;;;;;;14.05;2.90;;;;;;;;;;5025533;28;20238;-12
2022/08/20 07:28:30;;;;;;;7.53;2.72;;;;;;;;;;5025274;28;20238;-12
2022/08/20 07:33:46;;;;;;;7.60;2.53;;;;;;;;;;5030358;28;20231;-13
2022/08/20 07:36:17;;;;;;;6.18;3.10;;;;;;;;;;5031118;28;20239;-12
2022/08/20 07:38:49;;;;;;;5.15;2.15;;;;;;;;;;5030589;28;20242;-12
2022/08/20 07:41:17;;;;;;;7.97;2.78;;;;;;;;;;5029401;28;20713;-12
2022/08/20 07:43:45;;;;;;;6.57;3.05;;;;;;;;;;5021743;28;20261;-12
2022/08/20 07:46:12;;;;;;;7.10;2.90;;;;;;;;;;5022198;28;20234;-12
2022/08/20 07:48:40;;;;;;;7.82;3.10;;;;;;;;;;5024652;28;20230;-12
2022/08/20 07:51:08;;;;;;;6.95;2.83;;;;;;;;;;5030214;28;20994;-12
2022/08/20 07:53:36;;;;;;;6.82;3.03;;;;;;;;;;5028753;28;20231;-13
2022/08/20 07:56:05;;;;;;;7.22;2.65;;;;;;;;;;5028155;28;20239;-12
2022/08/20 07:58:34;;;;;;;6.57;2.50;;;;;;;;;;5029057;28;20246;-12
2022/08/20 08:01:02;;;;;;;10.48;3.00;;;;;;;;;;5027770;28;20227;-12
2022/08/20 08:03:30;;;;;;;12.65;3.33;;;;;;;;;;5030640;28;20289;-12
2022/08/20 08:06:17;;;;;;;7.18;2.33;;;;;;;;;;5028991;28;20229;-12
2022/08/20 08:08:56;;;;;;;9.10;2.72;;;;;;;;;;5033397;28;20685;-12
2022/08/20 08:11:25;;;;;;;8.88;2.50;;;;;;;;;;5033853;28;20227;-12
2022/08/20 08:13:53;;;;;;;11.93;3.00;;;;;;;;;;5025112;28;20229;-12
2022/08/20 08:16:20;;;;;;;8.77;2.85;;;;;;;;;;5031299;28;20321;-12
2022/08/20 08:18:48;;;;;;;12.38;3.28;;;;;;;;;;5030346;28;20237;-12
2022/08/20 08:21:16;;;;;;;9.18;2.70;;;;;;;;;;5029839;28;20338;-12
2022/08/20 08:23:44;;;;;;;9.48;2.60;;;;;;;;;;5032920;28;20411;-12
2022/08/20 08:26:13;;;;;;;7.43;2.45;;;;;;;;;;5028269;28;20227;-12
2022/08/20 08:28:46;;;;;;;7.00;2.50;;;;;;;;;;5029617;28;20227;-12
2022/08/20 08:31:13;;;;;;;10.32;2.42;;;;;;;;;;5028722;28;20241;-12
2022/08/20 08:33:41;;;;;;;10.18;2.63;;;;;;;;;;5030034;28;20233;-12
2022/08/20 08:36:09;;;;;;;6.90;2.30;;;;;;;;;;5033171;28;20234;-12
2022/08/20 08:38:37;;;;;;;9.20;2.55;;;;;;;;;;5032596;28;20231;-12
2022/08/20 08:41:07;;;;;;;15.63;2.53;;;;;;;;;;5032902;28;20238;-12
2022/08/20 08:43:34;;;;;;;8.52;2.65;;;;;;;;;;5032824;28;20234;-12
2022/08/20 08:46:04;;;;;;;9.32;2.47;;;;;;;;;;5032753;28;20233;-12
2022/08/20 08:48:33;;;;;;;6.53;2.33;;;;;;;;;;5031597;28;20222;-12
2022/08/20 08:51:00;;;;;;;6.05;2.03;;;;;;;;;;5033012;28;20333;-12
2022/08/20 08:53:32;;;;;;;7.60;2.40;;;;;;;;;;5025324;28;20972;-12
2022/08/20 08:55:59;;;;;;;7.28;2.15;;;;;;;;;;5031476;28;20238;-12
2022/08/20 08:58:27;;;;;;;5.72;1.92;;;;;;;;;;5031943;28;20234;-12
2022/08/20 09:00:55;;;;;;;5.78;2.10;;;;;;;;;;5032637;28;20241;-12
2022/08/20 09:03:29;;;;;;;8.80;2.50;;;;;;;;;;5019553;28;20241;-12
2022/08/20 09:05:58;;;;;;;7.13;2.03;;;;;;;;;;5033049;28;20737;-12
2022/08/20 09:08:26;;;;;;;9.43;2.17;;;;;;;;;;5032919;28;20223;-12
2022/08/20 09:10:54;;;;;;;5.55;1.95;;;;;;;;;;5031986;28;20241;-12
2022/08/20 09:13:21;;;;;;;5.93;2.00;;;;;;;;;;5031118;28;20694;-12
2022/08/20 09:15:49;;;;;;;6.53;1.70;;;;;;;;;;5031564;28;20257;-12
2022/08/20 09:18:16;;;;;;;7.43;2.20;;;;;;;;;;5032270;28;20234;-12
2022/08/20 09:20:45;;;;;;;7.82;2.50;;;;;;;;;;5030240;28;20260;-13
2022/08/20 09:23:12;;;;;;;5.68;1.80;;;;;;;;;;5032043;28;20246;-12
2022/08/20 09:25:40;;;;;;;8.50;2.85;;;;;;;;;;5032269;28;20231;-12
2022/08/20 09:28:07;;;;;;;3.38;1.55;;;;;;;;;;5032182;28;20231;-12
2022/08/20 09:30:35;;;;;;;7.30;2.35;;;;;;;;;;5032538;28;20321;-12
2022/08/20 09:33:04;;;;;;;7.32;2.05;;;;;;;;;;5031197;28;20230;-12
2022/08/20 09:35:33;;;;;;;5.95;2.30;;;;;;;;;;5031584;28;20271;-12
2022/08/20 09:38:01;;;;;;;8.20;2.58;;;;;;;;;;5032419;28;20230;-12
2022/08/20 09:40:29;;;;;;;7.35;2.33;;;;;;;;;;5031882;28;20740;-12
2022/08/20 09:42:56;;;;;;;6.05;2.28;;;;;;;;;;5036434;28;20238;-12
2022/08/20 09:45:24;;;;;;;5.95;1.85;;;;;;;;;;5031572;28;20370;-12
2022/08/20 09:47:52;;;;;;;6.28;2.25;;;;;;;;;;5032048;28;20226;-12
2022/08/20 09:50:23;;;;;;;5.45;2.20;;;;;;;;;;5031814;28;21086;-12
2022/08/20 09:52:51;;;;;;;8.65;2.47;;;;;;;;;;5031503;28;20226;-12
2022/08/20 09:55:21;;;;;;;7.28;2.05;;;;;;;;;;5030565;28;20227;-12
2022/08/20 09:57:49;;;;;;;6.45;2.20;;;;;;;;;;5025870;28;20269;-12
2022/08/20 10:00:17;;;;;;;6.90;2.05;;;;;;;;;;5031730;28;20253;-12
2022/08/20 10:02:44;;;;;;;5.25;2.08;;;;;;;;;;5031595;28;20722;-12
2022/08/20 10:05:12;;;;;;;5.03;1.98;;;;;;;;;;5031743;28;20231;-12
2022/08/20 10:07:39;;;;;;;6.03;2.30;;;;;;;;;;5031502;28;20233;-12
2022/08/20 10:10:07;;;;;;;8.63;2.15;;;;;;;;;;5031096;28;20242;-12
2022/08/20 10:12:36;;;;;;;5.28;1.92;;;;;;;;;;5031515;28;20230;-12
2022/08/20 10:15:03;;;;;;;5.75;2.13;;;;;;;;;;5028328;28;20231;-12
2022/08/20 10:17:31;;;;;;;7.07;1.92;;;;;;;;;;5029961;28;21034;-12
2022/08/20 10:19:58;;;;;;;5.28;2.10;;;;;;;;;;5031673;28;20242;-12
2022/08/20 10:22:26;;;;;;;6.32;2.10;;;;;;;;;;5030902;28;20247;-12
2022/08/20 10:24:53;;;;;;;6.53;1.88;;;;;;;;;;5031343;28;20826;-12
2022/08/20 10:27:20;;;;;;;4.07;1.83;;;;;;;;;;5030904;28;20777;-12
2022/08/20 10:29:49;;;;;;;4.43;1.45;;;;;;;;;;5031005;28;20737;-12
2022/08/20 10:32:17;;;;;;;4.75;1.90;;;;;;;;;;5031112;28;20231;-12
2022/08/20 10:34:47;;;;;;;5.78;1.85;;;;;;;;;;5020880;28;20236;-12
2022/08/20 10:37:14;;;;;;;3.72;1.70;;;;;;;;;;5029720;28;20321;-12
2022/08/20 10:39:42;;;;;;;6.47;1.67;;;;;;;;;;5031425;28;20231;-12
2022/08/20 10:42:09;;;;;;;6.32;1.70;;;;;;;;;;5031095;28;20673;-12
2022/08/20 10:44:37;;;;;;;5.65;2.20;;;;;;;;;;5031296;28;20233;-12
2022/08/20 10:47:16;;;;;;;5.45;1.70;;;;;;;;;;5030913;28;20226;-12
2022/08/20 10:49:43;;;;;;;6.13;2.00;;;;;;;;;;5020781;28;20239;-12
2022/08/20 10:52:10;;;;;;;6.50;1.83;;;;;;;;;;5030913;28;20235;-12
2022/08/20 10:54:40;;;;;;;6.07;1.88;;;;;;;;;;5030504;28;20231;-12
2022/08/20 10:57:08;;;;;;;4.63;1.98;;;;;;;;;;5030740;28;20226;-12
2022/08/20 10:59:37;;;;;;;6.53;1.95;;;;;;;;;;5029590;28;20235;-12
2022/08/20 11:02:05;;;;;;;7.72;2.15;;;;;;;;;;5030734;28;20245;-12
2022/08/20 11:04:34;;;;;;;6.32;1.77;;;;;;;;;;5031170;28;20231;-12
2022/08/20 11:07:10;;;;;;;5.63;1.85;;;;;;;;;;5030700;28;20237;-12
2022/08/20 11:09:37;;;;;;;4.10;1.83;;;;;;;;;;5030295;28;20239;-12
2022/08/20 11:12:04;;;;;;;6.97;2.30;;;;;;;;;;5030894;28;20318;-12
2022/08/20 11:14:32;;;;;;;5.53;1.90;;;;;;;;;;5026950;28;20284;-12
2022/08/20 11:17:00;;;;;;;7.15;2.03;;;;;;;;;;5030729;28;20238;-12
2022/08/20 11:19:27;;;;;;;5.40;2.20;;;;;;;;;;5030636;28;20234;-12
2022/08/20 11:21:56;;;;;;;5.15;1.85;;;;;;;;;;5029882;28;20277;-12
2022/08/20 11:24:23;;;;;;;7.68;2.17;;;;;;;;;;5030090;28;20699;-12
2022/08/20 11:26:52;;;;;;;4.82;1.98;;;;;;;;;;5030510;28;20231;-14
2022/08/20 11:29:21;;;;;;;7.05;2.03;;;;;;;;;;5030652;28;20234;-12
2022/08/20 11:31:48;;;;;;;7.05;2.03;;;;;;;;;;5030009;28;20231;-12
2022/08/20 11:34:16;;;;;;;6.30;2.08;;;;;;;;;;5023276;28;20227;-12
2022/08/20 11:36:43;;;;;;;5.40;1.90;;;;;;;;;;5025784;28;20234;-12
2022/08/20 11:39:12;;;;;;;6.05;1.83;;;;;;;;;;5033969;28;20237;-12
2022/08/20 11:41:39;;;;;;;4.15;1.77;;;;;;;;;;5033690;28;20235;-12
2022/08/20 11:44:12;;;;;;;4.18;1.75;;;;;;;;;;5033324;28;20241;-12
2022/08/20 11:46:47;;;;;;;5.80;1.90;;;;;;;;;;5034141;28;20234;-12
2022/08/20 11:49:15;;;;;;;7.00;1.90;;;;;;;;;;5033151;28;20234;-12
2022/08/20 11:51:42;;;;;;;5.18;1.60;;;;;;;;;;5033689;28;20612;-12
2022/08/20 11:54:17;;;;;;;6.43;2.05;;;;;;;;;;5037172;28;20222;-12
2022/08/20 11:56:45;;;;;;;6.68;2.05;;;;;;;;;;5033668;28;20239;-12
2022/08/20 11:59:13;;;;;;;5.22;1.92;;;;;;;;;;5033553;28;20622;-12
2022/08/20 12:01:40;;;;;;;4.38;1.88;;;;;;;;;;5033366;28;20710;-12
2022/08/20 12:04:18;;;;;;;4.03;1.40;;;;;;;;;;5032943;28;20242;-12
2022/08/20 12:06:47;;;;;;;5.43;1.65;;;;;;;;;;5033504;28;20257;-12
2022/08/20 12:09:16;;;;;;;5.40;1.90;;;;;;;;;;5033596;28;20218;-12
2022/08/20 12:11:48;;;;;;;3.92;1.80;;;;;;;;;;5033334;28;20227;-12
2022/08/20 12:14:15;;;;;;;4.95;1.80;;;;;;;;;;5027814;28;20964;-12
2022/08/20 12:16:43;;;;;;;5.55;2.22;;;;;;;;;;5032251;28;20235;-12
2022/08/20 12:19:10;;;;;;;3.53;1.60;;;;;;;;;;5032956;28;20233;-12
2022/08/20 12:21:37;;;;;;;5.03;1.70;;;;;;;;;;5032899;28;20821;-12
2022/08/20 12:24:05;;;;;;;3.95;1.60;;;;;;;;;;5033363;28;20245;-12
2022/08/20 12:26:32;;;;;;;4.68;1.80;;;;;;;;;;5032463;28;20281;-12
2022/08/20 12:29:01;;;;;;;3.75;1.67;;;;;;;;;;5032928;28;20235;-12
2022/08/20 12:31:29;;;;;;;4.78;1.60;;;;;;;;;;5033023;28;20234;-12
2022/08/20 12:33:56;;;;;;;2.85;1.42;;;;;;;;;;5028498;28;20228;-12
2022/08/20 12:36:23;;;;;;;7.03;1.65;;;;;;;;;;5024893;28;20239;-12
2022/08/20 12:38:52;;;;;;;5.63;2.10;;;;;;;;;;5032034;28;20241;-12
2022/08/20 12:41:19;;;;;;;7.57;2.10;;;;;;;;;;5032821;28;20245;-12
2022/08/20 12:43:46;;;;;;;4.68;2.05;;;;;;;;;;5032857;28;20239;-12
2022/08/20 12:46:15;;;;;;;5.68;1.67;;;;;;;;;;5032767;28;20769;-12
2022/08/20 12:48:42;;;;;;;4.97;1.60;;;;;;;;;;5031232;28;20983;-12
2022/08/20 12:51:10;;;;;;;2.83;1.30;;;;;;;;;;5032828;28;20230;-12
2022/08/20 12:53:37;;;;;;;6.80;2.08;;;;;;;;;;5033101;28;20245;-12
2022/08/20 12:56:05;;;;;;;4.00;1.60;;;;;;;;;;5030082;28;20242;-12
2022/08/20 12:58:33;;;;;;;3.10;1.60;;;;;;;;;;5032879;28;20237;-12
2022/08/20 13:01:00;;;;;;;4.53;1.70;;;;;;;;;;5031816;28;20914;-12
2022/08/20 13:03:29;;;;;;;4.30;1.42;;;;;;;;;;5032012;28;20250;-12
2022/08/20 13:06:00;;;;;;;3.85;1.40;;;;;;;;;;5032498;28;20317;-12
2022/08/20 13:08:28;;;;;;;5.63;1.90;;;;;;;;;;5032510;28;20227;-12
2022/08/20 13:10:55;;;;;;;3.42;1.48;;;;;;;;;;5031534;28;20242;-12
2022/08/20 13:13:23;;;;;;;3.60;1.63;;;;;;;;;;5032426;28;20241;-12
2022/08/20 13:15:50;;;;;;;4.38;1.50;;;;;;;;;;5032093;28;20239;-12
2022/08/20 13:18:18;;;;;;;3.05;1.50;;;;;;;;;;5032159;28;20270;-12
2022/08/20 13:20:46;;;;;;;4.72;1.55;;;;;;;;;;5032011;28;20587;-13
2022/08/20 13:23:14;;;;;;;3.70;1.63;;;;;;;;;;5031654;28;20247;-12
2022/08/20 13:25:41;;;;;;;5.55;1.75;;;;;;;;;;5031902;28;20706;-12
2022/08/20 13:28:09;;;;;;;4.32;1.52;;;;;;;;;;5031343;28;20296;-12
2022/08/20 13:30:37;;;;;;;4.60;1.63;;;;;;;;;;5032105;28;20237;-12
2022/08/20 13:33:05;;;;;;;3.08;1.20;;;;;;;;;;5031688;28;20227;-12
2022/08/20 13:35:32;;;;;;;5.05;1.30;;;;;;;;;;5019430;28;20249;-12
2022/08/20 13:38:01;;;;;;;2.65;1.27;;;;;;;;;;5031931;28;20226;-12
2022/08/20 13:40:28;;;;;;;4.05;1.52;;;;;;;;;;5032190;28;20682;-12
2022/08/20 13:42:55;;;;;;;3.75;1.55;;;;;;;;;;5031880;28;20249;-12
2022/08/20 13:45:23;;;;;;;4.05;1.65;;;;;;;;;;5031078;28;20230;-12
2022/08/20 13:47:51;;;;;;;3.95;1.50;;;;;;;;;;5031804;28;20231;-12
2022/08/20 13:50:19;;;;;;;5.35;1.58;;;;;;;;;;5031903;28;20245;-12
2022/08/20 13:52:47;;;;;;;8.88;1.63;;;;;;;;;;5031091;28;20241;-12
2022/08/20 13:55:21;;;;;;;6.15;1.55;;;;;;;;;;5028434;28;20227;-12
2022/08/20 13:57:49;;;;;;;4.65;1.45;;;;;;;;;;5018527;28;20559;-12
2022/08/20 14:00:17;;;;;;;4.95;1.40;;;;;;;;;;5031270;28;20227;-12
2022/08/20 14:02:44;;;;;;;6.25;1.63;;;;;;;;;;5031425;28;20724;-12
2022/08/20 14:05:12;;;;;;;3.10;1.40;;;;;;;;;;5030680;28;20241;-12
2022/08/20 14:07:41;;;;;;;5.43;1.58;;;;;;;;;;5028973;28;20691;-12
2022/08/20 14:10:09;;;;;;;4.85;1.60;;;;;;;;;;5031891;28;20239;-12
2022/08/20 14:12:38;;;;;;;6.18;1.83;;;;;;;;;;5031062;28;20241;-12
2022/08/20 14:15:07;;;;;;;7.07;1.50;;;;;;;;;;5022223;28;20237;-12
2022/08/20 14:17:35;;;;;;;4.25;1.35;;;;;;;;;;5029564;28;20230;-12
2022/08/20 14:20:04;;;;;;;5.13;1.77;;;;;;;;;;5031798;28;20239;-12
2022/08/20 14:22:32;;;;;;;4.68;1.20;;;;;;;;;;5030569;28;20329;-12
2022/08/20 14:25:03;;;;;;;6.80;1.40;;;;;;;;;;5031434;28;20286;-12
2022/08/20 14:27:31;;;;;;;4.05;1.52;;;;;;;;;;5030862;28;20233;-12
2022/08/20 14:30:00;;;;;;;6.22;1.42;;;;;;;;;;5031158;28;20242;-12
2022/08/20 14:32:28;;;;;;;4.10;1.55;;;;;;;;;;5030975;28;20235;-12
2022/08/20 14:34:57;;;;;;;3.38;1.25;;;;;;;;;;5030578;28;20227;-12
2022/08/20 14:37:26;;;;;;;3.00;1.38;;;;;;;;;;5017959;28;20274;-12
2022/08/20 14:39:55;;;;;;;5.72;1.50;;;;;;;;;;5031028;28;20238;-12
2022/08/20 14:42:23;;;;;;;7.90;2.08;;;;;;;;;;5030433;28;20318;-12
2022/08/20 14:44:50;;;;;;;3.05;1.27;;;;;;;;;;5030740;28;20666;-12
2022/08/20 14:47:19;;;;;;;4.78;1.38;;;;;;;;;;5030667;28;20223;-12
2022/08/20 14:49:47;;;;;;;4.07;1.30;;;;;;;;;;5030487;28;20235;-12
2022/08/20 14:52:15;;;;;;;3.10;1.10;;;;;;;;;;5030955;28;20237;-12
2022/08/20 14:54:42;;;;;;;5.40;1.52;;;;;;;;;;5022247;28;20229;-12
2022/08/20 14:57:10;;;;;;;4.72;1.63;;;;;;;;;;5030681;28;20726;-12
2022/08/20 14:59:39;;;;;;;4.40;1.40;;;;;;;;;;5030959;28;20258;-12
2022/08/20 15:02:07;;;;;;;5.07;1.75;;;;;;;;;;5030529;28;20285;-12